createdAt,value
2022-12-01T00:00:59.396Z,97946.81
2022-12-01T00:03:26.362Z,97945.25
2022-12-01T00:06:00.304Z,97946.28
2022-12-01T00:08:27.236Z,97940.06
2022-12-01T00:10:53.876Z,97934.97
2022-12-01T00:13:20.392Z,97926.47
2022-12-01T00:15:46.824Z,97926.69
2022-12-01T00:18:13.263Z,97924.38
2022-12-01T00:20:40.489Z,97924.69
2022-12-01T00:23:06.915Z,97924.19
2022-12-01T00:25:33.362Z,97923.53
2022-12-01T00:27:59.839Z,97928.69
2022-12-01T00:30:27.767Z,97929.84
2022-12-01T00:32:54.260Z,97938.22
2022-12-01T00:35:20.671Z,97927.13
2022-12-01T00:37:47.216Z,97935.09
2022-12-01T00:40:13.885Z,97934.47
2022-12-01T00:42:40.871Z,97933.75
2022-12-01T00:45:07.503Z,97934.88
2022-12-01T00:47:33.983Z,97935.91
2022-12-01T00:50:00.584Z,97941.19
2022-12-01T00:52:27.554Z,97945.63
2022-12-01T00:54:53.992Z,97939.06
2022-12-01T00:57:20.452Z,97942.72
2022-12-01T00:59:49.130Z,97940.22
2022-12-01T01:02:15.964Z,97943.94
2022-12-01T01:04:42.503Z,97938.41
2022-12-01T01:07:08.942Z,97946.47
2022-12-01T01:09:35.385Z,97943.44
2022-12-01T01:12:01.976Z,97942.56
2022-12-01T01:14:28.420Z,97947.09
2022-12-01T01:16:56.328Z,97949.06
2022-12-01T01:19:23.069Z,97943.41
2022-12-01T01:21:49.557Z,97949.34
2022-12-01T01:24:15.975Z,97943.97
2022-12-01T01:26:42.676Z,97951.09
2022-12-01T01:29:09.226Z,97945.06
2022-12-01T01:31:35.759Z,97947.66
2022-12-01T01:34:03.310Z,97942.78
2022-12-01T01:36:29.786Z,97946.47
2022-12-01T01:38:56.419Z,97945.22
2022-12-01T01:41:23.837Z,97952.13
2022-12-01T01:43:54.959Z,97952.50
2022-12-01T01:46:26.093Z,97949.00
2022-12-01T01:48:52.476Z,97946.78
2022-12-01T01:51:40.544Z,97948.53
2022-12-01T01:54:26.613Z,97948.63
2022-12-01T01:56:54.107Z,97946.88
2022-12-01T01:59:31.691Z,97944.72
2022-12-01T02:02:08.607Z,97953.03
2022-12-01T02:04:36.360Z,97945.06
2022-12-01T02:07:02.885Z,97947.22
2022-12-01T02:09:29.331Z,97940.72
2022-12-01T02:12:14.617Z,97942.91
2022-12-01T02:14:53.296Z,97944.41
2022-12-01T02:17:41.347Z,97947.81
2022-12-01T02:20:20.271Z,97938.22
2022-12-01T02:22:52.198Z,97940.53
2022-12-01T02:25:38.862Z,97936.00
2022-12-01T02:28:29.426Z,97938.59
2022-12-01T02:31:02.967Z,97939.03
2022-12-01T02:33:35.671Z,97940.06
2022-12-01T02:36:05.223Z,97938.28
2022-12-01T02:38:38.554Z,97936.53
2022-12-01T02:41:11.066Z,97932.84
2022-12-01T02:43:46.043Z,97938.66
2022-12-01T02:46:15.585Z,97936.16
2022-12-01T02:48:43.196Z,97938.66
2022-12-01T02:51:12.653Z,97943.19
2022-12-01T02:53:39.228Z,97934.50
2022-12-01T02:56:07.180Z,97938.28
2022-12-01T02:58:33.671Z,97936.16
2022-12-01T03:01:06.219Z,97934.22
2022-12-01T03:03:40.958Z,97930.38
2022-12-01T03:06:26.603Z,97930.91
2022-12-01T03:09:09.377Z,97927.97
2022-12-01T03:11:43.806Z,97931.91
2022-12-01T03:14:16.321Z,97933.09
2022-12-01T03:16:53.186Z,97928.53
2022-12-01T03:19:25.739Z,97937.75
2022-12-01T03:22:01.702Z,97931.19
2022-12-01T03:24:31.667Z,97928.53
2022-12-01T03:26:59.235Z,97922.91
2022-12-01T03:29:28.115Z,97917.34
2022-12-01T03:31:57.050Z,97910.84
2022-12-01T03:34:34.208Z,97912.50
2022-12-01T03:37:14.415Z,97912.41
2022-12-01T03:39:42.655Z,97909.78
2022-12-01T03:42:13.957Z,97905.41
2022-12-01T03:44:48.095Z,97905.44
2022-12-01T03:47:20.899Z,97906.66
2022-12-01T03:49:50.363Z,97912.91
2022-12-01T03:52:26.410Z,97912.00
2022-12-01T03:55:01.124Z,97912.84
2022-12-01T03:57:35.902Z,97915.03
2022-12-01T04:00:02.643Z,97923.97
2022-12-01T04:02:38.995Z,97916.09
2022-12-01T04:05:06.266Z,97912.97
2022-12-01T04:07:32.982Z,97911.09
2022-12-01T04:09:59.594Z,97911.19
2022-12-01T04:12:33.158Z,97911.72
2022-12-01T04:15:04.067Z,97912.06
2022-12-01T04:17:30.984Z,97921.25
2022-12-01T04:19:57.499Z,97915.06
2022-12-01T04:22:24.425Z,97914.31
2022-12-01T04:24:51.400Z,97606.19
2022-12-01T04:27:17.942Z,97907.56
2022-12-01T04:29:44.359Z,97904.78
2022-12-01T04:32:10.870Z,97905.59
2022-12-01T04:34:37.484Z,97904.78
2022-12-01T04:37:04.448Z,97906.34
2022-12-01T04:39:30.883Z,97892.75
2022-12-01T04:41:57.390Z,97894.31
2022-12-01T04:44:23.832Z,97901.78
2022-12-01T04:46:51.334Z,97896.47
2022-12-01T04:49:17.883Z,97900.00
2022-12-01T04:51:44.284Z,97895.34
2022-12-01T04:54:10.675Z,97894.31
2022-12-01T04:56:37.150Z,97904.59
2022-12-01T04:59:03.687Z,97906.13
2022-12-01T05:01:30.140Z,97908.81
2022-12-01T05:03:56.691Z,97905.50
2022-12-01T05:06:25.028Z,97905.19
2022-12-01T05:08:56.532Z,97909.75
2022-12-01T05:11:30.876Z,97905.19
2022-12-01T05:13:57.569Z,97905.91
2022-12-01T05:16:26.033Z,97907.97
2022-12-01T05:19:13.818Z,97916.16
2022-12-01T05:21:40.676Z,97907.75
2022-12-01T05:24:07.773Z,97912.53
2022-12-01T05:26:34.255Z,97910.13
2022-12-01T05:29:00.686Z,97916.53
2022-12-01T05:31:28.013Z,97913.41
2022-12-01T05:33:54.515Z,97910.19
2022-12-01T05:36:20.978Z,97915.88
2022-12-01T05:38:47.463Z,97916.81
2022-12-01T05:41:15.309Z,97918.88
2022-12-01T05:43:41.772Z,97913.78
2022-12-01T05:46:08.289Z,97913.31
2022-12-01T05:48:34.918Z,97915.09
2022-12-01T05:51:08.666Z,97913.53
2022-12-01T05:53:35.083Z,97922.34
2022-12-01T05:56:01.456Z,97919.00
2022-12-01T05:58:28.260Z,97915.88
2022-12-01T06:00:54.774Z,97920.53
2022-12-01T06:03:21.227Z,97916.25
2022-12-01T06:05:47.698Z,97919.06
2022-12-01T06:08:14.182Z,97919.34
2022-12-01T06:10:40.918Z,97919.44
2022-12-01T06:13:07.378Z,97912.69
2022-12-01T06:15:33.926Z,97917.03
2022-12-01T06:18:00.373Z,97919.91
2022-12-01T06:20:26.842Z,97911.22
2022-12-01T06:22:53.436Z,97924.91
2022-12-01T06:25:19.948Z,97923.25
2022-12-01T06:27:46.914Z,97919.19
2022-12-01T06:30:13.647Z,97923.63
2022-12-01T06:32:40.062Z,97918.53
2022-12-01T06:35:06.794Z,97921.97
2022-12-01T06:37:33.263Z,97925.41
2022-12-01T06:39:59.693Z,97925.50
2022-12-01T06:42:28.829Z,97928.16
2022-12-01T06:44:55.253Z,97922.16
2022-12-01T06:47:21.685Z,97927.72
2022-12-01T06:49:48.326Z,97932.13
2022-12-01T06:52:14.935Z,97932.97
2022-12-01T06:54:41.336Z,97929.94
2022-12-01T06:57:08.074Z,97925.31
2022-12-01T06:59:35.204Z,97927.81
2022-12-01T07:02:03.054Z,97931.13
2022-12-01T07:04:29.646Z,97931.13
2022-12-01T07:06:58.990Z,97939.53
2022-12-01T07:09:25.502Z,97938.50
2022-12-01T07:11:51.958Z,97939.25
2022-12-01T07:14:22.728Z,97940.72
2022-12-01T07:16:49.329Z,97940.63
2022-12-01T07:19:15.789Z,97945.59
2022-12-01T07:21:42.204Z,97942.00
2022-12-01T07:24:09.082Z,97943.56
2022-12-01T07:26:35.557Z,97946.78
2022-12-01T07:29:01.964Z,97941.97
2022-12-01T07:31:28.481Z,97945.91
2022-12-01T07:33:55.170Z,97943.34
2022-12-01T07:36:21.596Z,97947.09
2022-12-01T07:38:47.979Z,97954.41
2022-12-01T07:41:19.130Z,97945.50
2022-12-01T07:43:48.764Z,97951.13
2022-12-01T07:46:23.320Z,97952.50
2022-12-01T07:48:50.783Z,97951.34
2022-12-01T07:51:17.628Z,97949.50
2022-12-01T07:53:45.177Z,97956.16
2022-12-01T07:56:12.012Z,97953.84
2022-12-01T07:58:38.596Z,97950.75
2022-12-01T08:01:09.446Z,97953.78
2022-12-01T08:03:36.309Z,97949.03
2022-12-01T08:06:03.412Z,97955.09
2022-12-01T08:08:30.761Z,97950.22
2022-12-01T08:10:59.945Z,97950.72
2022-12-01T08:13:26.460Z,97953.53
2022-12-01T08:15:52.934Z,97953.75
2022-12-01T08:18:19.433Z,97953.22
2022-12-01T08:20:45.891Z,97952.09
2022-12-01T08:23:12.368Z,97963.72
2022-12-01T08:25:38.849Z,97956.25
2022-12-01T08:28:05.555Z,97957.50
2022-12-01T08:30:32.277Z,97958.31
2022-12-01T08:32:58.972Z,97958.84
2022-12-01T08:35:25.751Z,97955.19
2022-12-01T08:37:54.382Z,97955.59
2022-12-01T08:40:21.751Z,97960.16
2022-12-01T08:42:48.137Z,97954.94
2022-12-01T08:45:14.654Z,97955.22
2022-12-01T08:47:41.070Z,97954.81
2022-12-01T08:50:07.735Z,97959.19
2022-12-01T08:52:34.643Z,97962.50
2022-12-01T08:55:03.458Z,97963.84
2022-12-01T08:57:30.027Z,97964.75
2022-12-01T08:59:56.765Z,97965.00
2022-12-01T09:02:23.736Z,97961.56
2022-12-01T09:04:50.740Z,97966.09
2022-12-01T09:07:20.279Z,97965.81
2022-12-01T09:09:51.472Z,97965.59
2022-12-01T09:12:18.062Z,97965.00
2022-12-01T09:14:49.592Z,98023.44
2022-12-01T09:17:17.010Z,97971.16
2022-12-01T09:19:44.120Z,97963.84
2022-12-01T09:22:11.238Z,97972.53
2022-12-01T09:24:37.990Z,97968.00
2022-12-01T09:27:04.469Z,97969.81
2022-12-01T09:29:31.432Z,97971.72
2022-12-01T09:31:58.627Z,97969.84
2022-12-01T09:34:25.838Z,97974.91
2022-12-01T09:36:54.522Z,97965.69
2022-12-01T09:39:21.602Z,97969.38
2022-12-01T09:41:53.036Z,97963.78
2022-12-01T09:44:48.940Z,97966.88
2022-12-01T09:47:32.127Z,97960.47
2022-12-01T09:49:58.615Z,97961.16
2022-12-01T09:52:26.367Z,97960.25
2022-12-01T09:54:55.158Z,97951.31
2022-12-01T09:57:33.545Z,97950.53
2022-12-01T10:00:01.055Z,97950.16
2022-12-01T10:02:47.943Z,97946.19
2022-12-01T10:05:16.250Z,97939.03
2022-12-01T10:07:48.882Z,97937.00
2022-12-01T10:10:20.891Z,97931.41
2022-12-01T10:12:47.634Z,97932.16
2022-12-01T10:15:23.470Z,97931.41
2022-12-01T10:17:55.982Z,97928.91
2022-12-01T10:20:28.471Z,97931.25
2022-12-01T10:22:54.921Z,97924.06
2022-12-01T10:25:25.158Z,97924.28
2022-12-01T10:28:03.953Z,97915.66
2022-12-01T10:30:30.539Z,97927.19
2022-12-01T10:33:02.288Z,97921.13
2022-12-01T10:35:36.155Z,97913.84
2022-12-01T10:38:04.546Z,97921.88
2022-12-01T10:40:35.367Z,97911.28
2022-12-01T10:43:02.279Z,97920.81
2022-12-01T10:45:33.198Z,97911.94
2022-12-01T10:48:15.538Z,97907.94
2022-12-01T10:50:43.408Z,97911.59
2022-12-01T10:53:36.797Z,97906.25
2022-12-01T10:56:10.306Z,97901.63
2022-12-01T10:58:47.991Z,97897.19
2022-12-01T11:01:25.466Z,97891.16
2022-12-01T11:03:54.508Z,97896.25
2022-12-01T11:06:22.887Z,97889.50
2022-12-01T11:08:55.240Z,97889.78
2022-12-01T11:11:36.295Z,97887.47
2022-12-01T11:14:05.138Z,97899.16
2022-12-01T11:16:42.500Z,97893.25
2022-12-01T11:19:20.512Z,97888.84
2022-12-01T11:21:59.389Z,97883.34
2022-12-01T11:24:28.949Z,97886.09
2022-12-01T11:26:56.534Z,97886.94
2022-12-01T11:29:29.786Z,97881.44
2022-12-01T11:31:57.393Z,97884.88
2022-12-01T11:34:25.872Z,97880.22
2022-12-01T11:37:03.265Z,97878.56
2022-12-01T11:39:34.811Z,97879.53
2022-12-01T11:42:03.003Z,97881.28
2022-12-01T11:47:24.310Z,97874.81
2022-12-01T11:49:53.363Z,97875.88
2022-12-01T11:52:23.296Z,97872.03
2022-12-01T11:55:22.457Z,97869.00
2022-12-01T11:57:53.839Z,97868.06
2022-12-01T12:00:21.774Z,97883.75
2022-12-01T12:02:59.444Z,97872.88
2022-12-01T12:05:45.692Z,97876.06
2022-12-01T12:08:27.120Z,97863.22
2022-12-01T12:11:00.929Z,97873.31
2022-12-01T12:13:29.371Z,97865.59
2022-12-01T12:16:14.261Z,97874.94
2022-12-01T12:18:43.793Z,97873.31
2022-12-01T12:21:24.501Z,97865.03
2022-12-01T12:24:11.596Z,97868.75
2022-12-01T12:26:58.314Z,97864.22
2022-12-01T12:29:30.792Z,97860.75
2022-12-01T12:32:12.652Z,97858.69
2022-12-01T12:34:58.004Z,97859.66
2022-12-01T12:37:39.877Z,97864.19
2022-12-01T12:40:06.299Z,97861.88
2022-12-01T12:42:54.988Z,97854.97
2022-12-01T12:45:40.270Z,97858.13
2022-12-01T12:48:25.427Z,97845.06
2022-12-01T12:51:11.647Z,97846.00
2022-12-01T12:53:59.746Z,97845.56
2022-12-01T12:56:27.518Z,97851.09
2022-12-01T12:58:58.277Z,97848.19
2022-12-01T13:01:34.693Z,97839.81
2022-12-01T13:04:06.483Z,97844.63
2022-12-01T13:06:41.784Z,97845.56
2022-12-01T13:09:11.611Z,97842.16
2022-12-01T13:11:47.503Z,97845.88
2022-12-01T13:14:26.215Z,97839.44
2022-12-01T13:16:54.419Z,97839.97
2022-12-01T13:19:23.299Z,97828.13
2022-12-01T13:21:51.668Z,97835.84
2022-12-01T13:24:23.294Z,97836.28
2022-12-01T13:26:53.030Z,97833.94
2022-12-01T13:29:21.643Z,97830.50
2022-12-01T13:31:52.573Z,97824.13
2022-12-01T13:34:19.185Z,97828.97
2022-12-01T13:36:50.022Z,97836.38
2022-12-01T13:39:22.823Z,97830.47
2022-12-01T13:42:02.613Z,97837.22
2022-12-01T13:44:44.306Z,97829.50
2022-12-01T13:47:10.732Z,97831.56
2022-12-01T13:49:45.157Z,97835.97
2022-12-01T13:52:28.184Z,97826.59
2022-12-01T13:55:22.791Z,97831.56
2022-12-01T13:57:50.815Z,97831.13
2022-12-01T14:00:26.949Z,97831.41
2022-12-01T14:03:12.569Z,97830.13
2022-12-01T14:05:43.805Z,97831.94
2022-12-01T14:08:22.643Z,97828.09
2022-12-01T14:11:00.694Z,97831.22
2022-12-01T14:13:30.159Z,97829.44
2022-12-01T14:16:00.885Z,97825.72
2022-12-01T14:18:33.043Z,97832.34
2022-12-01T14:21:04.686Z,97828.91
2022-12-01T14:23:34.036Z,97821.59
2022-12-01T14:26:12.720Z,97825.84
2022-12-01T14:28:58.660Z,97818.69
2022-12-01T14:31:46.645Z,97824.31
2022-12-01T14:34:19.115Z,97824.59
2022-12-01T14:36:49.751Z,97822.69
2022-12-01T14:39:21.928Z,97819.88
2022-12-01T14:41:51.049Z,97823.19
2022-12-01T14:44:29.768Z,97823.31
2022-12-01T14:47:02.505Z,97822.91
2022-12-01T14:49:52.244Z,97828.41
2022-12-01T14:52:31.812Z,97825.66
2022-12-01T14:54:59.295Z,97823.59
2022-12-01T14:57:30.404Z,97826.47
2022-12-01T15:00:03.257Z,97820.59
2022-12-01T15:02:29.767Z,97819.81
2022-12-01T15:05:13.763Z,97811.84
2022-12-01T15:07:44.625Z,97815.81
2022-12-01T15:10:17.402Z,97814.88
2022-12-01T15:12:43.917Z,97807.28
2022-12-01T15:15:15.929Z,97811.56
2022-12-01T15:17:44.485Z,97813.59
2022-12-01T15:20:30.984Z,97812.06
2022-12-01T15:22:58.579Z,97816.06
2022-12-01T15:25:29.082Z,97814.25
2022-12-01T15:28:25.479Z,97811.06
2022-12-01T15:30:53.599Z,97814.22
2022-12-01T15:33:26.900Z,97817.34
2022-12-01T15:35:55.090Z,97816.97
2022-12-01T15:38:23.726Z,97812.13
2022-12-01T15:41:21.288Z,97815.97
2022-12-01T15:43:41.238Z,97812.25
2022-12-01T15:46:11.277Z,97814.44
2022-12-01T15:48:37.720Z,97822.03
2022-12-01T15:51:13.519Z,97816.47
2022-12-01T15:53:44.956Z,97820.06
2022-12-01T15:56:11.615Z,97816.75
2022-12-01T15:58:43.930Z,97820.31
2022-12-01T16:01:18.368Z,97814.84
2022-12-01T16:03:49.931Z,97816.03
2022-12-01T16:06:16.701Z,97811.78
2022-12-01T16:08:51.891Z,97819.75
2022-12-01T16:11:18.866Z,97811.91
2022-12-01T16:13:58.149Z,97809.81
2022-12-01T16:16:30.887Z,97812.56
2022-12-01T16:19:03.814Z,97809.00
2022-12-01T16:21:48.698Z,97808.31
2022-12-01T16:24:20.831Z,97810.03
2022-12-01T16:26:51.892Z,97803.84
2022-12-01T16:29:28.616Z,97808.00
2022-12-01T16:32:19.335Z,97807.03
2022-12-01T16:34:46.739Z,97803.72
2022-12-01T16:37:13.802Z,97818.00
2022-12-01T16:39:40.246Z,97813.84
2022-12-01T16:42:06.699Z,97821.22
2022-12-01T16:44:33.178Z,97819.19
2022-12-01T16:46:59.618Z,97825.91
2022-12-01T16:49:26.152Z,97830.34
2022-12-01T16:51:57.135Z,97836.47
2022-12-01T16:54:25.228Z,97829.63
2022-12-01T16:56:51.730Z,97832.22
2022-12-01T16:59:18.284Z,97826.44
2022-12-01T17:01:44.670Z,97827.28
2022-12-01T17:04:11.247Z,97826.13
2022-12-01T17:06:38.434Z,97833.00
2022-12-01T17:09:05.074Z,97826.94
2022-12-01T17:11:32.026Z,97835.03
2022-12-01T17:13:58.467Z,97836.56
2022-12-01T17:16:25.337Z,97836.56
2022-12-01T17:18:52.242Z,97833.13
2022-12-01T17:21:18.812Z,97834.75
2022-12-01T17:23:45.299Z,97847.44
2022-12-01T17:26:13.772Z,97843.56
2022-12-01T17:28:41.193Z,97844.75
2022-12-01T17:31:08.182Z,97854.94
2022-12-01T17:33:35.157Z,97851.63
2022-12-01T17:36:03.312Z,97845.41
2022-12-01T17:38:30.497Z,97841.13
2022-12-01T17:41:04.422Z,97853.78
2022-12-01T17:43:30.823Z,97856.28
2022-12-01T17:45:59.612Z,97855.44
2022-12-01T17:48:26.157Z,97855.97
2022-12-01T17:50:52.507Z,97861.16
2022-12-01T17:53:19.083Z,97856.19
2022-12-01T17:55:45.625Z,97862.38
2022-12-01T17:58:12.066Z,97861.66
2022-12-01T18:00:38.596Z,97858.69
2022-12-01T18:03:05.113Z,97857.97
2022-12-01T18:05:31.662Z,97862.22
2022-12-01T18:07:58.395Z,97859.03
2022-12-01T18:10:27.764Z,97864.72
2022-12-01T18:12:54.223Z,97864.84
2022-12-01T18:15:20.666Z,97867.56
2022-12-01T18:17:52.881Z,97866.03
2022-12-01T18:20:19.340Z,97863.09
2022-12-01T18:22:45.944Z,97868.09
2022-12-01T18:25:12.672Z,97866.66
2022-12-01T18:27:39.884Z,97876.25
2022-12-01T18:30:06.794Z,97868.56
2022-12-01T18:32:33.501Z,97878.28
2022-12-01T18:35:00.128Z,97869.88
2022-12-01T18:37:26.587Z,97870.59
2022-12-01T18:39:54.693Z,97865.38
2022-12-01T18:42:21.213Z,97870.47
2022-12-01T18:44:48.036Z,97861.84
2022-12-01T18:47:14.674Z,97816.09
2022-12-01T18:49:41.251Z,97864.53
2022-12-01T18:52:07.784Z,97872.63
2022-12-01T18:54:35.690Z,97870.41
2022-12-01T18:57:04.978Z,97870.16
2022-12-01T18:59:34.372Z,97866.03
2022-12-01T19:02:00.926Z,97855.34
2022-12-01T19:04:27.648Z,97863.03
2022-12-01T19:06:55.887Z,97859.47
2022-12-01T19:09:23.279Z,97858.41
2022-12-01T19:11:52.960Z,97861.72
2022-12-01T19:14:19.665Z,97857.94
2022-12-01T19:16:47.264Z,97849.16
2022-12-01T19:19:14.842Z,97861.13
2022-12-01T19:21:41.583Z,97863.63
2022-12-01T19:24:08.530Z,97860.28
2022-12-01T19:26:35.214Z,97857.44
2022-12-01T19:29:01.688Z,97857.31
2022-12-01T19:31:28.171Z,97859.09
2022-12-01T19:33:55.000Z,97855.78
2022-12-01T19:36:25.603Z,97858.19
2022-12-01T19:38:52.235Z,97849.66
2022-12-01T19:41:25.066Z,97854.56
2022-12-01T19:43:54.779Z,97858.56
2022-12-01T19:46:27.069Z,97860.09
2022-12-01T19:48:55.263Z,97857.22
2022-12-01T19:51:26.150Z,97853.53
2022-12-01T19:53:52.965Z,97861.34
2022-12-01T19:56:19.443Z,97854.38
2022-12-01T19:58:48.632Z,97862.06
2022-12-01T20:01:16.700Z,97852.72
2022-12-01T20:03:47.734Z,97859.38
2022-12-01T20:06:16.004Z,97855.00
2022-12-01T20:08:42.939Z,97861.78
2022-12-01T20:11:09.560Z,97862.84
2022-12-01T20:13:37.568Z,97863.09
2022-12-01T20:16:05.462Z,97865.97
2022-12-01T20:18:32.078Z,97862.38
2022-12-01T20:21:02.444Z,97868.78
2022-12-01T20:23:28.833Z,97868.09
2022-12-01T20:25:57.961Z,97868.00
2022-12-01T20:28:24.435Z,97863.94
2022-12-01T20:30:50.988Z,97866.19
2022-12-01T20:33:17.833Z,97865.25
2022-12-01T20:35:44.224Z,97865.59
2022-12-01T20:38:10.730Z,97865.72
2022-12-01T20:40:37.131Z,97868.69
2022-12-01T20:43:03.688Z,97868.56
2022-12-01T20:45:30.264Z,97874.25
2022-12-01T20:47:56.802Z,97893.31
2022-12-01T20:50:23.271Z,97863.94
2022-12-01T20:52:49.710Z,97869.66
2022-12-01T20:55:16.230Z,97858.28
2022-12-01T20:57:42.687Z,97870.94
2022-12-01T21:00:13.046Z,97863.25
2022-12-01T21:02:42.006Z,97869.16
2022-12-01T21:05:08.632Z,97866.44
2022-12-01T21:07:37.945Z,97863.13
2022-12-01T21:10:05.512Z,97859.13
2022-12-01T21:12:51.234Z,97857.91
2022-12-01T21:15:24.768Z,97859.56
2022-12-01T21:17:54.291Z,97865.50
2022-12-01T21:20:25.141Z,97865.38
2022-12-01T21:22:53.594Z,97862.06
2022-12-01T21:25:24.342Z,97863.81
2022-12-01T21:27:51.276Z,97867.75
2022-12-01T21:30:22.275Z,97858.16
2022-12-01T21:32:49.242Z,97860.88
2022-12-01T21:35:17.496Z,97854.50
2022-12-01T21:37:44.608Z,97846.09
2022-12-01T21:40:24.706Z,97853.56
2022-12-01T21:42:51.561Z,97852.97
2022-12-01T21:45:19.161Z,97848.75
2022-12-01T21:47:45.952Z,97855.72
2022-12-01T21:50:17.091Z,97855.59
2022-12-01T21:52:44.582Z,97859.97
2022-12-01T21:55:17.069Z,97854.75
2022-12-01T21:57:47.810Z,97855.34
2022-12-01T22:00:20.407Z,97858.91
2022-12-01T22:02:49.606Z,97855.47
2022-12-01T22:05:42.876Z,97853.69
2022-12-01T22:08:12.394Z,97848.38
2022-12-01T22:10:55.992Z,97845.88
2022-12-01T22:13:24.641Z,97846.47
2022-12-01T22:15:52.492Z,97841.25
2022-12-01T22:18:37.855Z,97846.22
2022-12-01T22:21:19.610Z,97843.38
2022-12-01T22:23:46.459Z,97835.69
2022-12-01T22:26:19.485Z,97840.63
2022-12-01T22:28:48.774Z,97837.91
2022-12-01T22:31:18.475Z,97836.38
2022-12-01T22:33:45.021Z,97830.09
2022-12-01T22:36:19.686Z,97837.22
2022-12-01T22:38:48.802Z,97829.28
2022-12-01T22:41:16.530Z,97830.94
2022-12-01T22:43:43.067Z,97832.69
2022-12-01T22:46:16.780Z,97832.00
2022-12-01T22:48:45.034Z,97833.66
2022-12-01T22:51:14.339Z,97830.94
2022-12-01T22:53:44.280Z,97830.00
2022-12-01T22:56:26.037Z,97829.63
2022-12-01T22:58:52.756Z,97824.81
2022-12-01T23:01:30.055Z,97828.13
2022-12-01T23:04:14.711Z,97817.94
2022-12-01T23:06:53.678Z,97812.41
2022-12-01T23:09:21.407Z,97811.56
2022-12-01T23:11:50.511Z,97809.09
2022-12-01T23:14:19.816Z,97809.94
2022-12-01T23:16:46.240Z,97774.81
2022-12-01T23:19:12.686Z,97813.97
2022-12-01T23:21:39.153Z,97808.28
2022-12-01T23:24:06.269Z,97807.09
2022-12-01T23:26:32.947Z,97809.59
2022-12-01T23:29:00.147Z,97797.16
2022-12-01T23:31:27.629Z,97795.38
2022-12-01T23:33:54.185Z,97792.31
2022-12-01T23:36:26.047Z,97795.50
2022-12-01T23:38:57.227Z,97794.56
2022-12-01T23:41:32.855Z,97785.69
2022-12-01T23:44:01.156Z,97776.00
2022-12-01T23:46:29.875Z,97775.88
2022-12-01T23:48:58.964Z,97773.03
2022-12-01T23:51:27.950Z,97767.81
2022-12-01T23:53:55.551Z,97766.50
2022-12-01T23:56:23.527Z,97772.69
2022-12-01T23:58:50.866Z,97782.63
